Time;durP1;ratioP1;P1;durP2;ratioP2;P2;SDS_P1;SDS_P2;PMS_P1;PMS_P2;Temp;Humidity;BMP_temperature;BMP_pressure;BME280_temperature;BME280_humidity;BME280_pressure;Samples;Min_cycle;Max_cycle;Signal;HPM_P1;HPM_P2
2021/04/13 00:02:29;;;;;;;1.40;1.30;;;2.20;98.00;;;;;;5070866;28;20461;-75
2021/04/13 00:04:59;;;;;;;1.20;1.00;;;2.20;98.00;;;;;;5067439;28;20541;-75
2021/04/13 00:07:29;;;;;;;1.20;0.90;;;2.30;98.00;;;;;;5070002;28;20463;-75
2021/04/13 00:09:56;;;;;;;1.30;1.17;;;2.00;98.00;;;;;;5068047;28;20945;-75
2021/04/13 00:12:27;;;;;;;1.77;1.47;;;1.80;98.00;;;;;;5071060;28;20479;-75
2021/04/13 00:14:57;;;;;;;1.30;1.20;;;1.80;98.00;;;;;;5067895;28;20502;-75
2021/04/13 00:17:28;;;;;;;2.40;1.30;;;1.80;98.00;;;;;;5070840;28;20468;-75
2021/04/13 00:20:07;;;;;;;1.20;1.00;;;1.80;98.00;;;;;;5067861;28;20455;-75
2021/04/13 00:22:34;;;;;;;1.30;1.10;;;1.80;98.00;;;;;;5070882;28;20467;-75
2021/04/13 00:25:02;;;;;;;1.87;1.80;;;1.90;98.00;;;;;;5067481;28;20488;-75
2021/04/13 00:27:31;;;;;;;1.20;1.00;;;1.90;98.00;;;;;;5069541;28;20445;-76
2021/04/13 00:30:11;;;;;;;1.20;1.00;;;2.10;98.00;;;;;;5067902;28;20452;-75
2021/04/13 00:32:47;;;;;;;1.20;1.10;;;1.80;98.00;;;;;;5070627;28;20468;-75
2021/04/13 00:35:18;;;;;;;1.50;1.40;;;1.70;98.00;;;;;;5069341;28;20547;-75
2021/04/13 00:37:45;;;;;;;1.30;1.10;;;1.90;98.00;;;;;;5068092;28;20887;-75
2021/04/13 00:40:23;;;;;;;1.50;1.17;;;2.00;98.00;;;;;;5069384;28;20460;-75
2021/04/13 00:42:51;;;;;;;1.20;0.90;;;2.10;98.00;;;;;;5067764;28;20460;-75
2021/04/13 00:45:22;;;;;;;2.63;1.40;;;2.10;98.00;;;;;;5072775;28;20575;-75
2021/04/13 00:47:50;;;;;;;1.20;1.00;;;1.90;98.00;;;;;;5071250;28;20807;-75
2021/04/13 00:50:25;;;;;;;1.20;0.93;;;1.70;98.00;;;;;;5073170;28;20952;-76
2021/04/13 00:52:55;;;;;;;1.67;1.50;;;1.50;98.00;;;;;;5071749;28;20470;-75
2021/04/13 00:55:26;;;;;;;1.97;1.20;;;1.40;98.00;;;;;;5073950;28;20468;-75
2021/04/13 00:58:01;;;;;;;1.20;1.00;;;1.30;98.00;;;;;;5069925;28;20469;-75
2021/04/13 01:00:34;;;;;;;1.20;1.00;;;1.50;98.00;;;;;;5074004;28;20464;-75
2021/04/13 01:03:03;;;;;;;1.20;1.00;;;1.70;98.00;;;;;;5070893;28;20499;-75
2021/04/13 01:05:41;;;;;;;1.20;1.00;;;1.70;98.00;;;;;;5073933;28;21006;-75
2021/04/13 01:08:29;;;;;;;2.70;1.53;;;1.50;98.00;;;;;;5070867;28;20463;-75
2021/04/13 01:10:58;;;;;;;1.20;1.00;;;1.50;98.00;;;;;;5073708;28;20941;-75
2021/04/13 01:13:36;;;;;;;1.20;1.00;;;1.60;98.00;;;;;;5070922;28;20464;-75
2021/04/13 01:16:04;;;;;;;1.30;1.10;;;1.70;98.00;;;;;;5073580;28;20453;-75
2021/04/13 01:18:34;;;;;;;1.20;1.00;;;1.80;98.00;;;;;;5069272;28;20456;-75
2021/04/13 01:21:09;;;;;;;1.20;0.90;;;1.90;98.00;;;;;;5073583;28;20930;-75
2021/04/13 01:23:42;;;;;;;1.20;1.00;;;1.90;98.00;;;;;;5070559;28;20463;-75
2021/04/13 01:26:09;;;;;;;1.20;0.93;;;1.90;98.00;;;;;;5073463;28;20859;-75
2021/04/13 01:28:39;;;;;;;1.20;1.00;;;1.90;98.00;;;;;;5070403;28;20452;-75
2021/04/13 01:31:09;;;;;;;1.20;1.00;;;1.90;98.00;;;;;;5073462;28;20463;-75
2021/04/13 01:33:42;;;;;;;1.20;1.00;;;1.90;98.00;;;;;;5070965;28;20464;-75
2021/04/13 01:36:20;;;;;;;1.20;1.00;;;1.80;98.00;;;;;;5073527;28;20456;-75
2021/04/13 01:39:02;;;;;;;1.93;1.20;;;1.70;98.00;;;;;;5070313;28;20490;-75
2021/04/13 01:41:47;;;;;;;1.40;1.40;;;1.50;98.00;;;;;;5073374;28;20467;-75
2021/04/13 01:44:17;;;;;;;1.20;1.00;;;1.60;98.00;;;;;;5070195;28;20545;-76
2021/04/13 01:46:45;;;;;;;1.30;1.00;;;1.50;98.00;;;;;;5071952;28;20480;-75
2021/04/13 01:49:13;;;;;;;1.20;1.00;;;1.40;98.00;;;;;;5069760;28;20494;-75
2021/04/13 01:51:39;;;;;;;2.23;1.80;;;1.30;98.00;;;;;;5072956;28;20883;-75
2021/04/13 01:54:14;;;;;;;1.20;1.10;;;1.20;98.00;;;;;;5069924;28;20472;-75
2021/04/13 01:56:53;;;;;;;1.20;0.90;;;1.30;98.00;;;;;;5071537;28;20516;-75
2021/04/13 01:59:25;;;;;;;5.17;1.67;;;1.30;98.00;;;;;;5070046;28;20492;-75
2021/04/13 02:01:58;;;;;;;1.50;1.33;;;1.40;98.00;;;;;;5072604;28;20459;-76
2021/04/13 02:04:29;;;;;;;1.20;1.00;;;1.40;98.00;;;;;;5069541;28;20484;-75
2021/04/13 02:07:06;;;;;;;1.20;1.10;;;1.50;98.00;;;;;;5072425;28;21201;-75
2021/04/13 02:09:41;;;;;;;1.50;1.30;;;1.60;98.00;;;;;;5070282;28;20860;-75
2021/04/13 02:12:12;;;;;;;1.20;1.00;;;1.50;98.00;;;;;;5072244;28;20741;-75
2021/04/13 02:14:44;;;;;;;1.20;1.10;;;1.60;98.00;;;;;;5069754;28;20684;-75
2021/04/13 02:17:14;;;;;;;1.80;1.43;;;1.70;98.00;;;;;;5072609;28;20476;-75
2021/04/13 02:19:48;;;;;;;1.20;1.00;;;1.80;98.00;;;;;;5069928;28;20467;-75
2021/04/13 02:22:17;;;;;;;1.20;0.93;;;1.70;98.00;;;;;;5071238;28;20576;-75
2021/04/13 02:24:45;;;;;;;1.20;1.10;;;1.70;98.00;;;;;;5069066;28;20494;-75
2021/04/13 02:27:15;;;;;;;1.70;1.30;;;1.50;98.00;;;;;;5072309;28;20453;-75
2021/04/13 02:29:46;;;;;;;1.20;1.00;;;1.30;98.00;;;;;;5069509;28;20510;-75
2021/04/13 02:32:16;;;;;;;1.20;1.00;;;1.40;98.00;;;;;;5072152;28;20560;-75
2021/04/13 02:34:46;;;;;;;1.73;1.70;;;1.50;98.00;;;;;;5069246;28;21016;-75
2021/04/13 02:37:18;;;;;;;1.20;1.00;;;1.50;98.00;;;;;;5071960;28;20514;-75
2021/04/13 02:39:45;;;;;;;1.20;1.10;;;1.50;98.00;;;;;;5069449;28;21226;-75
2021/04/13 02:42:16;;;;;;;1.20;1.00;;;1.50;98.00;;;;;;5071929;28;20468;-75
2021/04/13 02:44:43;;;;;;;1.20;1.00;;;1.30;98.00;;;;;;5069013;28;21021;-75
2021/04/13 02:47:13;;;;;;;1.20;1.00;;;1.10;98.00;;;;;;5071784;28;20464;-75
2021/04/13 02:49:42;;;;;;;1.20;1.00;;;0.90;98.00;;;;;;5069470;28;20593;-75
2021/04/13 02:52:16;;;;;;;1.30;1.10;;;0.80;98.00;;;;;;5071766;28;20856;-75
2021/04/13 02:54:48;;;;;;;1.20;1.10;;;1.00;98.00;;;;;;5069102;28;20440;-75
2021/04/13 02:57:20;;;;;;;1.97;1.63;;;1.10;98.00;;;;;;5071600;28;20882;-75
2021/04/13 02:59:47;;;;;;;1.20;1.20;;;1.30;98.00;;;;;;5068909;28;20459;-75
2021/04/13 03:02:17;;;;;;;1.20;1.00;;;1.40;98.00;;;;;;5071882;28;20500;-75
2021/04/13 03:04:46;;;;;;;1.30;1.20;;;1.40;98.00;;;;;;5069113;28;20488;-75
2021/04/13 03:07:20;;;;;;;1.20;1.10;;;1.40;98.00;;;;;;5071623;28;20478;-75
2021/04/13 03:09:48;;;;;;;1.20;1.13;;;1.50;98.00;;;;;;5068740;28;20455;-75
2021/04/13 03:12:16;;;;;;;1.20;1.00;;;1.40;98.00;;;;;;5070986;28;20463;-75
2021/04/13 03:14:47;;;;;;;1.63;1.40;;;1.50;98.00;;;;;;5068454;28;21153;-75
2021/04/13 03:17:17;;;;;;;1.20;1.10;;;1.30;98.00;;;;;;5070884;28;20452;-75
2021/04/13 03:19:45;;;;;;;1.20;1.10;;;1.00;98.00;;;;;;5068416;28;20471;-75
2021/04/13 03:22:13;;;;;;;1.20;1.10;;;0.80;98.00;;;;;;5071351;28;20446;-75
2021/04/13 03:24:44;;;;;;;1.20;1.00;;;0.70;98.00;;;;;;5068876;28;20499;-75
2021/04/13 03:27:15;;;;;;;1.20;1.10;;;0.50;98.00;;;;;;5071600;28;20766;-75
2021/04/13 03:29:49;;;;;;;2.90;2.03;;;0.40;98.00;;;;;;5068582;28;20467;-75
2021/04/13 03:32:19;;;;;;;3.30;1.43;;;0.40;98.00;;;;;;5071664;28;20467;-75
2021/04/13 03:34:46;;;;;;;1.20;1.13;;;0.60;98.00;;;;;;5068129;28;20471;-75
2021/04/13 03:37:15;;;;;;;1.60;1.30;;;0.90;98.00;;;;;;5071215;28;20770;-75
2021/04/13 03:39:44;;;;;;;1.30;1.10;;;1.00;98.00;;;;;;5069738;28;20465;-75
2021/04/13 03:42:15;;;;;;;1.17;0.87;;;1.10;98.00;;;;;;5071511;28;20456;-75
2021/04/13 03:44:43;;;;;;;1.20;0.90;;;1.10;98.00;;;;;;5068685;28;20484;-75
2021/04/13 03:47:11;;;;;;;1.20;1.00;;;1.20;98.00;;;;;;5071325;28;20529;-75
2021/04/13 03:49:40;;;;;;;1.20;1.00;;;1.30;98.00;;;;;;5068325;28;20824;-75
2021/04/13 03:52:11;;;;;;;1.20;0.90;;;1.00;98.00;;;;;;5071241;28;20471;-75
2021/04/13 03:54:40;;;;;;;1.20;1.00;;;0.70;98.00;;;;;;5068127;28;20459;-75
2021/04/13 03:57:08;;;;;;;1.40;1.13;;;0.40;98.00;;;;;;5071142;28;20884;-75
2021/04/13 03:59:39;;;;;;;1.20;1.00;;;0.30;98.00;;;;;;5068273;28;20462;-75
2021/04/13 04:02:08;;;;;;;1.20;1.00;;;0.30;98.00;;;;;;5071009;28;20495;-75
2021/04/13 04:04:42;;;;;;;1.20;1.00;;;0.30;98.00;;;;;;5067830;28;20487;-75
2021/04/13 04:07:23;;;;;;;1.20;1.00;;;0.30;98.00;;;;;;5071001;28;20459;-75
2021/04/13 04:09:51;;;;;;;1.20;1.00;;;0.40;98.00;;;;;;5068384;28;20830;-75
2021/04/13 04:12:25;;;;;;;1.20;0.90;;;0.40;98.00;;;;;;5069485;28;20452;-75
2021/04/13 04:15:01;;;;;;;1.30;1.20;;;0.40;98.00;;;;;;5068076;28;20533;-75
2021/04/13 04:17:30;;;;;;;1.30;1.20;;;0.50;98.00;;;;;;5069509;28;20829;-75
2021/04/13 04:20:00;;;;;;;1.20;1.00;;;0.60;98.00;;;;;;5070424;28;20512;-75
2021/04/13 04:22:27;;;;;;;1.40;1.40;;;0.80;98.00;;;;;;5074602;28;20456;-75
2021/04/13 04:24:55;;;;;;;2.47;2.07;;;0.90;98.00;;;;;;5071768;28;20495;-75
2021/04/13 04:27:34;;;;;;;1.20;0.97;;;0.90;98.00;;;;;;5074967;28;20513;-75
2021/04/13 04:30:11;;;;;;;1.47;1.43;;;1.00;98.00;;;;;;5072282;28;20771;-74
2021/04/13 04:32:44;;;;;;;1.30;1.30;;;1.00;98.00;;;;;;5074683;28;20532;-75
2021/04/13 04:35:29;;;;;;;1.97;1.63;;;0.80;98.00;;;;;;5071412;28;20462;-75
2021/04/13 04:38:02;;;;;;;1.20;1.10;;;0.80;98.00;;;;;;5074543;28;20463;-74
2021/04/13 04:40:38;;;;;;;1.20;1.00;;;0.60;98.00;;;;;;5072177;28;20459;-75
2021/04/13 04:43:11;;;;;;;2.37;1.97;;;0.40;98.00;;;;;;5073773;28;20485;-75
2021/04/13 04:45:47;;;;;;;1.40;1.10;;;0.30;98.00;;;;;;5074681;28;20607;-75
2021/04/13 04:48:30;;;;;;;1.20;1.00;;;0.20;98.00;;;;;;5071314;28;20466;-75
2021/04/13 04:50:59;;;;;;;1.30;1.27;;;0.20;98.00;;;;;;5074195;28;20463;-75
2021/04/13 04:53:29;;;;;;;1.63;1.37;;;0.10;98.00;;;;;;5071286;28;20454;-75
2021/04/13 04:55:57;;;;;;;1.20;1.00;;;0.20;98.00;;;;;;5073970;28;20476;-75
2021/04/13 04:58:29;;;;;;;1.20;0.90;;;0.40;98.00;;;;;;5069697;28;20455;-75
2021/04/13 05:00:56;;;;;;;1.20;1.00;;;0.60;98.00;;;;;;5072841;28;20490;-75
2021/04/13 05:03:44;;;;;;;3.10;2.03;;;0.60;98.00;;;;;;5071183;28;20509;-75
2021/04/13 05:06:11;;;;;;;1.30;1.20;;;0.50;98.00;;;;;;5072822;28;20491;-75
2021/04/13 05:08:41;;;;;;;1.20;1.03;;;0.50;98.00;;;;;;5071260;28;20513;-75
2021/04/13 05:11:07;;;;;;;1.63;1.53;;;0.60;98.00;;;;;;5057307;28;20459;-75
2021/04/13 05:13:35;;;;;;;1.20;1.00;;;0.70;98.00;;;;;;5071325;28;20455;-75
2021/04/13 05:16:02;;;;;;;1.20;1.00;;;0.60;98.00;;;;;;5073756;28;21102;-74
2021/04/13 05:18:29;;;;;;;1.67;1.33;;;0.60;98.00;;;;;;5070923;28;20485;-74
2021/04/13 05:20:56;;;;;;;1.87;1.47;;;0.70;98.00;;;;;;5073590;28;20452;-75
2021/04/13 05:23:22;;;;;;;1.30;1.30;;;0.80;98.00;;;;;;5071239;28;20452;-75
2021/04/13 05:25:49;;;;;;;1.67;1.50;;;0.90;98.00;;;;;;5073484;28;20491;-75
2021/04/13 05:28:18;;;;;;;1.20;1.00;;;1.10;98.00;;;;;;5070607;28;20496;-75
2021/04/13 05:30:45;;;;;;;2.63;2.43;;;1.10;98.00;;;;;;5072218;28;20459;-75
2021/04/13 05:33:13;;;;;;;1.53;1.40;;;1.00;98.00;;;;;;5071996;28;20479;-74
2021/04/13 05:35:40;;;;;;;1.67;1.30;;;0.90;98.00;;;;;;5073301;28;20873;-74
2021/04/13 05:38:11;;;;;;;1.30;1.10;;;1.00;98.00;;;;;;5073270;28;20499;-74
2021/04/13 05:40:39;;;;;;;2.17;1.30;;;1.10;98.00;;;;;;5072697;28;20463;-74
2021/04/13 05:43:06;;;;;;;7.63;2.73;;;1.10;98.00;;;;;;5073163;28;20463;-75
2021/04/13 05:45:35;;;;;;;1.20;1.00;;;1.00;98.00;;;;;;5070224;28;20607;-74
2021/04/13 05:48:04;;;;;;;1.20;0.90;;;0.90;98.00;;;;;;5073061;28;20487;-74
2021/04/13 05:50:32;;;;;;;2.70;2.00;;;0.70;98.00;;;;;;5069917;28;20513;-74
2021/04/13 05:52:59;;;;;;;1.20;1.00;;;0.70;98.00;;;;;;5072870;28;20942;-75
2021/04/13 05:55:26;;;;;;;1.20;1.00;;;0.70;98.00;;;;;;5069917;28;20472;-73
2021/04/13 05:57:55;;;;;;;1.40;1.20;;;0.70;98.00;;;;;;5073153;28;20538;-73
2021/04/13 06:00:25;;;;;;;1.37;1.33;;;0.80;98.00;;;;;;5069147;28;20464;-73
2021/04/13 06:02:53;;;;;;;1.20;1.00;;;0.80;98.00;;;;;;5072767;28;20948;-73
2021/04/13 06:05:23;;;;;;;1.20;1.10;;;0.80;98.00;;;;;;5069482;28;20487;-73
2021/04/13 06:07:50;;;;;;;1.20;1.00;;;0.80;98.00;;;;;;5072798;28;20826;-73
2021/04/13 06:10:17;;;;;;;1.20;1.03;;;1.00;98.00;;;;;;5069923;28;20508;-73
2021/04/13 06:12:44;;;;;;;2.53;1.93;;;1.20;98.00;;;;;;5072629;28;20456;-73
2021/04/13 06:15:14;;;;;;;1.20;1.00;;;1.40;98.00;;;;;;5069420;28;20513;-72
2021/04/13 06:17:41;;;;;;;1.20;1.00;;;1.50;98.00;;;;;;5072371;28;20966;-73
2021/04/13 06:20:08;;;;;;;3.73;1.20;;;1.60;98.00;;;;;;5069622;28;20463;-74
2021/04/13 06:22:36;;;;;;;1.20;1.10;;;1.70;98.00;;;;;;5072207;28;20453;-73
2021/04/13 06:25:03;;;;;;;1.50;1.20;;;1.80;98.00;;;;;;5069209;28;20556;-73
2021/04/13 06:27:32;;;;;;;2.20;1.20;;;1.90;98.00;;;;;;5072273;28;20943;-72
2021/04/13 06:29:58;;;;;;;1.20;1.00;;;2.10;98.00;;;;;;5069366;28;20513;-73
2021/04/13 06:32:25;;;;;;;1.63;1.47;;;2.30;98.00;;;;;;5070766;28;20941;-74
2021/04/13 06:34:52;;;;;;;1.33;1.30;;;2.40;98.00;;;;;;5069318;28;20505;-73
2021/04/13 06:37:19;;;;;;;2.27;1.63;;;2.40;98.00;;;;;;5072125;28;20457;-73
2021/04/13 06:39:47;;;;;;;1.20;1.20;;;2.40;98.00;;;;;;5069151;28;20457;-73
2021/04/13 06:42:35;;;;;;;1.50;1.37;;;2.40;98.00;;;;;;5071868;28;20476;-73
2021/04/13 06:45:23;;;;;;;1.20;1.10;;;2.50;98.00;;;;;;5067563;28;20845;-73
2021/04/13 06:48:19;;;;;;;1.50;1.37;;;2.60;98.00;;;;;;5071674;28;20464;-74
2021/04/13 06:50:53;;;;;;;1.20;0.93;;;2.70;98.00;;;;;;5071589;28;20549;-72
2021/04/13 06:53:33;;;;;;;3.00;2.07;;;2.80;98.00;;;;;;5069965;28;20519;-72
2021/04/13 06:56:39;;;;;;;1.37;1.20;;;3.00;98.00;;;;;;5070518;28;21036;-73
2021/04/13 06:59:43;;;;;;;1.70;1.20;;;3.20;98.00;;;;;;5050857;28;20582;-73
2021/04/13 07:02:15;;;;;;;1.60;1.50;;;3.40;98.00;;;;;;5071579;28;20516;-73
2021/04/13 07:04:45;;;;;;;2.70;2.07;;;3.60;98.00;;;;;;5068877;28;20572;-72
2021/04/13 07:07:16;;;;;;;1.20;1.20;;;3.60;98.00;;;;;;5071580;28;20532;-72
2021/04/13 07:09:47;;;;;;;6.57;1.27;;;3.80;98.00;;;;;;5068574;28;20456;-73
2021/04/13 07:12:21;;;;;;;1.20;1.00;;;3.80;98.00;;;;;;5070034;28;20543;-72
2021/04/13 07:14:56;;;;;;;1.20;1.00;;;4.00;98.00;;;;;;5068388;28;20481;-68
2021/04/13 07:17:31;;;;;;;2.70;1.60;;;4.10;98.00;;;;;;5070919;28;20452;-72
2021/04/13 07:20:05;;;;;;;2.33;1.80;;;4.20;98.00;;;;;;5066741;28;20467;-72
2021/04/13 07:22:38;;;;;;;1.93;1.87;;;4.20;98.00;;;;;;5071157;28;20444;-72
2021/04/13 07:25:09;;;;;;;1.47;1.30;;;4.30;98.00;;;;;;5068341;28;20962;-72
2021/04/13 07:27:45;;;;;;;1.20;1.00;;;4.40;98.00;;;;;;5071005;28;20457;-71
2021/04/13 07:30:19;;;;;;;1.30;1.20;;;4.50;98.00;;;;;;5067777;28;20511;-71
2021/04/13 07:32:46;;;;;;;2.10;1.30;;;4.50;98.00;;;;;;5069611;28;20808;-71
2021/04/13 07:35:17;;;;;;;2.47;1.73;;;4.60;98.00;;;;;;5068180;28;20477;-71
2021/04/13 07:37:46;;;;;;;1.70;1.23;;;4.70;98.00;;;;;;5070686;28;20913;-69
2021/04/13 07:40:14;;;;;;;1.20;1.00;;;4.60;98.00;;;;;;5067656;28;20515;-70
2021/04/13 07:42:47;;;;;;;2.17;1.40;;;4.50;98.00;;;;;;5070765;28;20463;-71
2021/04/13 07:45:23;;;;;;;2.77;2.20;;;4.40;98.00;;;;;;5067550;28;20547;-70
2021/04/13 07:48:25;;;;;;;3.10;2.53;;;4.50;98.00;;;;;;5070794;28;20444;-71
2021/04/13 07:51:17;;;;;;;1.60;1.40;;;4.50;98.00;;;;;;5070096;28;20842;-70
2021/04/13 07:54:05;;;;;;;1.93;1.40;;;4.70;98.00;;;;;;5067782;28;20461;-69
2021/04/13 07:56:41;;;;;;;1.20;1.10;;;4.70;98.00;;;;;;5074505;28;20473;-72
2021/04/13 07:59:19;;;;;;;2.63;1.30;;;4.70;98.00;;;;;;5071819;28;20454;-70
2021/04/13 08:01:47;;;;;;;1.80;1.53;;;4.90;98.00;;;;;;5074118;28;20458;-72
2021/04/13 08:04:18;;;;;;;1.30;1.20;;;5.00;98.00;;;;;;5071459;28;20452;-73
2021/04/13 08:06:50;;;;;;;1.30;1.27;;;5.10;98.00;;;;;;5074747;28;20458;-72
2021/04/13 08:09:41;;;;;;;1.93;1.57;;;5.40;98.00;;;;;;5071782;28;20454;-72
2021/04/13 08:12:24;;;;;;;2.03;1.93;;;5.60;98.00;;;;;;5066837;28;20485;-72
2021/04/13 08:15:10;;;;;;;1.30;1.30;;;5.70;98.00;;;;;;5071622;28;20851;-72
2021/04/13 08:17:55;;;;;;;1.20;1.00;;;5.90;98.00;;;;;;5074308;28;20792;-72
2021/04/13 08:20:28;;;;;;;1.23;1.00;;;6.10;98.00;;;;;;5071575;28;20459;-73
2021/04/13 08:22:57;;;;;;;1.30;1.20;;;6.10;98.00;;;;;;5074330;28;20509;-73
2021/04/13 08:25:39;;;;;;;1.20;1.20;;;6.20;97.90;;;;;;5071318;28;20476;-73
2021/04/13 08:28:21;;;;;;;2.70;1.20;;;6.30;96.70;;;;;;5074134;28;20963;-72
2021/04/13 08:34:03;;;;;;;2.30;2.00;;;6.70;97.20;;;;;;5047998;28;20954;-72
2021/04/13 08:36:37;;;;;;;1.70;1.30;;;6.60;95.40;;;;;;5073998;28;20801;-72
2021/04/13 08:39:08;;;;;;;1.20;1.10;;;6.60;96.00;;;;;;5070985;28;20458;-73
2021/04/13 08:41:44;;;;;;;1.70;1.43;;;6.50;96.90;;;;;;5073443;28;20472;-73
2021/04/13 08:44:22;;;;;;;1.40;1.20;;;6.30;95.70;;;;;;5071129;28;20464;-72
2021/04/13 08:46:54;;;;;;;1.53;1.33;;;6.20;96.40;;;;;;5073711;28;20465;-73
2021/04/13 08:49:47;;;;;;;1.57;1.40;;;6.40;97.30;;;;;;5069384;28;20467;-73
2021/04/13 08:52:28;;;;;;;1.20;0.90;;;6.50;93.70;;;;;;5073520;28;20864;-73
2021/04/13 08:55:05;;;;;;;2.37;1.83;;;6.70;93.40;;;;;;5070340;28;20458;-73
2021/04/13 08:57:34;;;;;;;1.30;1.10;;;6.60;91.80;;;;;;5072944;28;20470;-73
2021/04/13 09:00:05;;;;;;;1.80;1.30;;;6.80;89.90;;;;;;5069060;28;20468;-71
2021/04/13 09:02:34;;;;;;;1.30;1.10;;;7.00;90.90;;;;;;5073339;28;20559;-71
2021/04/13 09:05:06;;;;;;;1.30;1.20;;;7.20;89.70;;;;;;5070403;28;21033;-72
2021/04/13 09:07:51;;;;;;;1.20;0.90;;;8.00;98.00;;;;;;5073633;28;20465;-72
2021/04/13 09:10:30;;;;;;;2.70;1.50;;;9.40;98.00;;;;;;5070260;28;20968;-71
2021/04/13 09:13:22;;;;;;;1.40;1.20;;;10.40;85.50;;;;;;5073017;28;20457;-73
2021/04/13 09:15:55;;;;;;;1.43;1.20;;;10.60;80.20;;;;;;5059815;28;20996;-72
2021/04/13 09:18:29;;;;;;;1.70;1.40;;;10.20;79.00;;;;;;5071119;28;20456;-73
2021/04/13 09:21:17;;;;;;;1.20;1.00;;;9.60;80.50;;;;;;5070206;28;20460;-73
2021/04/13 09:23:58;;;;;;;2.23;1.50;;;9.30;78.00;;;;;;5069864;28;20454;-74
2021/04/13 09:26:32;;;;;;;1.30;1.00;;;8.90;77.20;;;;;;5071145;28;20488;-73
2021/04/13 09:29:00;;;;;;;1.40;1.30;;;8.60;78.80;;;;;;5069948;28;20485;-73
2021/04/13 09:31:43;;;;;;;1.50;1.20;;;8.40;79.10;;;;;;5071921;28;20524;-72
2021/04/13 09:34:13;;;;;;;1.43;1.00;;;8.20;77.70;;;;;;5068497;28;20948;-72
2021/04/13 09:37:07;;;;;;;1.30;1.10;;;8.50;78.00;;;;;;5072287;28;20950;-72
2021/04/13 09:39:58;;;;;;;1.57;1.10;;;8.80;77.30;;;;;;5069706;28;20794;-71
2021/04/13 09:42:39;;;;;;;1.20;1.00;;;9.10;79.30;;;;;;5072059;28;20527;-71
2021/04/13 09:45:10;;;;;;;1.20;1.07;;;9.50;79.40;;;;;;5069734;28;20530;-71
2021/04/13 09:48:13;;;;;;;1.30;1.30;;;9.60;79.60;;;;;;5072173;28;20452;-71
2021/04/13 09:50:48;;;;;;;1.20;0.90;;;9.60;78.80;;;;;;5065655;28;20476;-71
2021/04/13 09:53:53;;;;;;;2.20;1.20;;;9.50;78.00;;;;;;5070904;28;20470;-72
2021/04/13 09:56:43;;;;;;;1.33;1.20;;;9.10;81.00;;;;;;5009893;28;20473;-72
2021/04/13 09:59:35;;;;;;;2.43;1.47;;;8.80;81.30;;;;;;5068279;28;20462;-72
2021/04/13 10:02:20;;;;;;;1.57;1.23;;;8.70;82.70;;;;;;5065645;28;20462;-73
2021/04/13 10:04:55;;;;;;;1.60;1.20;;;8.50;81.50;;;;;;5069958;28;20605;-73
2021/04/13 10:07:30;;;;;;;1.50;1.33;;;8.30;81.80;;;;;;5071749;28;20549;-73
2021/04/13 10:09:58;;;;;;;3.50;1.83;;;8.20;82.30;;;;;;5069160;28;20853;-73
2021/04/13 10:12:53;;;;;;;1.20;1.00;;;8.10;80.70;;;;;;5071433;28;20783;-72
2021/04/13 10:15:53;;;;;;;1.30;1.23;;;8.00;81.70;;;;;;5069364;28;20467;-72
2021/04/13 10:18:58;;;;;;;1.67;1.30;;;7.80;81.10;;;;;;5070798;28;20457;-72
2021/04/13 10:22:02;;;;;;;3.87;1.83;;;7.50;81.90;;;;;;5071751;28;20493;-73
2021/04/13 10:25:08;;;;;;;1.20;1.03;;;7.60;82.30;;;;;;5068954;28;20451;-73
2021/04/13 10:28:08;;;;;;;1.50;1.30;;;7.70;79.10;;;;;;5041080;28;20460;-73
2021/04/13 10:31:23;;;;;;;1.20;1.07;;;8.10;80.80;;;;;;5068932;28;20458;-70
2021/04/13 10:34:22;;;;;;;1.20;1.00;;;8.50;78.10;;;;;;5007081;28;21003;-70
2021/04/13 10:37:20;;;;;;;1.40;1.40;;;9.30;75.20;;;;;;5009523;28;20469;-71
2021/04/13 10:40:04;;;;;;;1.20;1.20;;;9.90;76.40;;;;;;5068192;28;20534;-71
2021/04/13 10:43:11;;;;;;;1.30;1.20;;;10.20;71.80;;;;;;5071511;28;20524;-70
2021/04/13 10:46:10;;;;;;;1.20;1.20;;;10.20;72.00;;;;;;5069092;28;21064;-70
2021/04/13 10:49:15;;;;;;;1.70;1.27;;;10.10;70.60;;;;;;5071212;28;20887;-70
2021/04/13 10:52:19;;;;;;;2.27;1.43;;;9.80;71.50;;;;;;5071235;28;20450;-70
2021/04/13 10:55:08;;;;;;;1.30;1.30;;;10.20;72.00;;;;;;5068650;28;20541;-70
2021/04/13 10:58:18;;;;;;;1.20;1.00;;;10.40;70.80;;;;;;5071545;28;20463;-71
2021/04/13 11:01:10;;;;;;;1.20;1.00;;;10.30;69.80;;;;;;5068350;28;20834;-70
2021/04/13 11:04:21;;;;;;;1.20;1.00;;;9.90;67.10;;;;;;5071337;28;20449;-71
2021/04/13 11:07:28;;;;;;;1.20;1.00;;;9.60;69.00;;;;;;5071369;28;20486;-70
2021/04/13 11:10:22;;;;;;;1.20;1.00;;;9.50;68.60;;;;;;5068856;28;20484;-70
2021/04/13 11:13:29;;;;;;;1.40;1.23;;;10.00;68.20;;;;;;5070808;28;20463;-70
2021/04/13 11:16:43;;;;;;;1.40;1.20;;;10.60;66.50;;;;;;5068317;28;20452;-70
2021/04/13 11:19:25;;;;;;;2.20;1.30;;;11.30;66.00;;;;;;5040468;28;20942;-69
2021/04/13 11:22:13;;;;;;;2.20;1.77;;;11.50;65.50;;;;;;5070505;28;21020;-68
2021/04/13 11:25:10;;;;;;;2.40;1.30;;;12.00;66.60;;;;;;5067994;28;20579;-70
2021/04/13 11:28:10;;;;;;;1.50;1.40;;;11.90;63.70;;;;;;5070680;28;20544;-70
2021/04/13 11:31:06;;;;;;;1.40;1.10;;;12.10;63.80;;;;;;5067206;28;20944;-70
2021/04/13 11:34:01;;;;;;;1.50;1.07;;;12.40;68.20;;;;;;5053698;28;20465;-69
2021/04/13 11:36:41;;;;;;;1.20;1.10;;;12.80;62.60;;;;;;5071276;28;20484;-68
2021/04/13 11:39:22;;;;;;;1.40;1.00;;;12.50;64.60;;;;;;5068746;28;21072;-69
2021/04/13 11:42:18;;;;;;;1.90;1.43;;;11.90;64.40;;;;;;5071121;28;20454;-70
2021/04/13 11:45:07;;;;;;;1.77;1.40;;;11.50;67.50;;;;;;5068575;28;20456;-69
2021/04/13 11:47:41;;;;;;;1.87;1.10;;;10.70;69.90;;;;;;5071127;28;20452;-69
2021/04/13 11:50:16;;;;;;;1.60;1.40;;;10.20;73.00;;;;;;5068287;28;20466;-69
2021/04/13 11:52:46;;;;;;;2.53;1.33;;;9.60;76.70;;;;;;5071213;28;20474;-69
2021/04/13 11:55:37;;;;;;;1.20;1.00;;;9.40;79.30;;;;;;5068076;28;20547;-69
2021/04/13 11:58:09;;;;;;;1.30;1.27;;;8.90;79.30;;;;;;5071148;28;20454;-69
2021/04/13 12:00:36;;;;;;;1.20;0.90;;;8.90;80.60;;;;;;5068249;28;20553;-70
2021/04/13 12:03:23;;;;;;;1.30;1.07;;;8.90;79.20;;;;;;5069799;28;20457;-70
2021/04/13 12:05:50;;;;;;;1.30;1.10;;;9.00;78.50;;;;;;5067076;28;20536;-70
2021/04/13 12:08:51;;;;;;;1.30;1.10;;;9.00;80.30;;;;;;5070552;28;20454;-70
2021/04/13 12:11:44;;;;;;;1.70;1.20;;;9.10;80.00;;;;;;5069641;28;20867;-70
2021/04/13 12:14:42;;;;;;;1.20;1.10;;;9.30;78.20;;;;;;5067368;28;21028;-69
2021/04/13 12:17:34;;;;;;;1.20;1.00;;;9.90;79.50;;;;;;5007824;28;20454;-69
2021/04/13 12:20:36;;;;;;;1.80;1.40;;;10.50;76.80;;;;;;5063811;28;20467;-69
2021/04/13 12:23:30;;;;;;;1.20;1.03;;;10.70;73.10;;;;;;5066863;28;20474;-68
2021/04/13 12:26:07;;;;;;;2.33;1.30;;;10.40;70.70;;;;;;5067309;28;20510;-68
2021/04/13 12:28:49;;;;;;;1.73;1.20;;;10.30;67.20;;;;;;5070659;28;20451;-69
2021/04/13 12:31:23;;;;;;;1.43;1.10;;;10.30;69.10;;;;;;5066359;28;20776;-69
2021/04/13 12:34:04;;;;;;;1.30;1.10;;;10.40;67.20;;;;;;5070276;28;20452;-69
2021/04/13 12:36:59;;;;;;;1.20;1.00;;;10.40;65.30;;;;;;5070197;28;20482;-69
2021/04/13 12:39:56;;;;;;;1.20;1.00;;;10.30;65.60;;;;;;5031866;28;20972;-69
2021/04/13 12:42:46;;;;;;;1.40;1.23;;;10.30;66.30;;;;;;5073569;28;21008;-69
2021/04/13 12:45:45;;;;;;;1.20;1.00;;;10.20;67.40;;;;;;5071033;28;20919;-69
2021/04/13 12:48:41;;;;;;;2.70;1.73;;;10.40;67.70;;;;;;5073127;28;20451;-69
2021/04/13 12:51:25;;;;;;;1.20;1.07;;;10.70;68.80;;;;;;5063945;28;20468;-69
2021/04/13 12:54:07;;;;;;;1.30;1.13;;;11.00;67.50;;;;;;5071038;28;20465;-69
2021/04/13 12:56:33;;;;;;;1.20;1.00;;;11.30;68.40;;;;;;5073476;28;20491;-69
2021/04/13 12:59:07;;;;;;;1.60;1.40;;;11.60;68.30;;;;;;5070801;28;20460;-69
2021/04/13 13:01:42;;;;;;;1.60;1.40;;;12.10;65.50;;;;;;5073431;28;20457;-69
2021/04/13 13:04:11;;;;;;;1.30;1.10;;;12.50;67.70;;;;;;5070746;28;20460;-69
2021/04/13 13:06:40;;;;;;;1.20;1.00;;;12.70;64.50;;;;;;5073440;28;20488;-69
2021/04/13 13:09:09;;;;;;;1.20;1.00;;;12.40;65.50;;;;;;5070420;28;20460;-69
2021/04/13 13:11:38;;;;;;;1.50;1.10;;;12.00;67.80;;;;;;5073200;28;20904;-69
2021/04/13 13:14:06;;;;;;;1.40;1.20;;;11.40;66.50;;;;;;5070720;28;20457;-70
2021/04/13 13:16:33;;;;;;;1.20;1.20;;;10.80;65.00;;;;;;5073412;28;20499;-69
2021/04/13 13:19:00;;;;;;;1.20;1.00;;;10.50;69.20;;;;;;5070709;28;20457;-70
2021/04/13 13:21:30;;;;;;;1.20;1.00;;;10.30;68.20;;;;;;5072886;28;20954;-70
2021/04/13 13:24:00;;;;;;;2.50;2.30;;;10.40;69.30;;;;;;5072609;28;20452;-70
2021/04/13 13:26:32;;;;;;;1.20;1.00;;;10.40;68.60;;;;;;5072770;28;20536;-69
2021/04/13 13:28:59;;;;;;;1.70;1.40;;;10.80;69.10;;;;;;5071591;28;20466;-69
2021/04/13 13:31:30;;;;;;;6.60;1.40;;;11.40;66.60;;;;;;5072629;28;20448;-69
2021/04/13 13:33:59;;;;;;;1.20;1.00;;;11.90;64.00;;;;;;5072348;28;20518;-69
2021/04/13 13:36:29;;;;;;;1.20;1.17;;;12.70;62.30;;;;;;5072220;28;20469;-69
2021/04/13 13:38:58;;;;;;;1.50;1.20;;;13.30;60.80;;;;;;5072876;28;20461;-70
2021/04/13 13:41:28;;;;;;;1.50;1.33;;;14.00;61.60;;;;;;5071170;28;20463;-71
2021/04/13 13:43:55;;;;;;;1.90;1.30;;;14.30;60.90;;;;;;5072615;28;20454;-68
2021/04/13 13:46:32;;;;;;;1.77;1.30;;;14.00;58.70;;;;;;5069914;28;20487;-71
2021/04/13 13:49:16;;;;;;;1.30;1.10;;;13.40;60.30;;;;;;5071046;28;20458;-71